Time;durP1;ratioP1;P1;durP2;ratioP2;P2;SDS_P1;SDS_P2;PMS_P1;PMS_P2;Temp;Humidity;BMP_temperature;BMP_pressure;BME280_temperature;BME280_humidity;BME280_pressure;Samples;Min_cycle;Max_cycle;Signal;HPM_P1;HPM_P2
2024/03/11 00:00:29;;;;;;;2.10;1.30;;;;;;;7.11;75.43;96948.41;4919788;28;105708;-69
2024/03/11 00:02:58;;;;;;;1.83;1.20;;;;;;;7.17;75.40;96946.03;4918711;28;103172;-69
2024/03/11 00:05:27;;;;;;;2.75;1.17;;;;;;;7.08;75.67;96954.03;4916752;28;102721;-69
2024/03/11 00:07:56;;;;;;;1.90;1.30;;;;;;;7.18;75.30;96958.16;4917817;28;103081;-69
2024/03/11 00:10:27;;;;;;;2.80;1.27;;;;;;;7.09;75.52;96960.94;4901955;28;105331;-69
2024/03/11 00:12:56;;;;;;;1.27;1.00;;;;;;;7.10;76.13;96967.84;4905858;28;104912;-69
2024/03/11 00:15:27;;;;;;;2.42;1.45;;;;;;;7.03;76.14;96966.94;4914626;28;102789;-69
2024/03/11 00:17:56;;;;;;;1.90;1.10;;;;;;;7.04;76.29;96968.59;4914529;28;102790;-69
2024/03/11 00:20:27;;;;;;;1.70;1.23;;;;;;;7.03;75.94;96971.41;4918263;28;104311;-69
2024/03/11 00:22:55;;;;;;;1.77;1.20;;;;;;;7.03;75.78;96982.75;4915325;28;103249;-69
2024/03/11 00:25:24;;;;;;;2.20;1.38;;;;;;;7.13;75.59;96975.34;4919905;28;103516;-69
2024/03/11 00:27:52;;;;;;;3.00;1.17;;;;;;;7.11;76.12;96974.75;4909667;28;102683;-69
2024/03/11 00:30:20;;;;;;;1.55;1.10;;;;;;;7.01;76.36;96974.22;4913437;28;103306;-69
2024/03/11 00:32:49;;;;;;;3.13;1.58;;;;;;;7.01;76.27;96976.88;4917977;28;103230;-69
2024/03/11 00:35:17;;;;;;;3.47;1.30;;;;;;;7.04;76.43;96976.47;4912324;28;102817;-69
2024/03/11 00:37:46;;;;;;;1.65;1.30;;;;;;;6.96;76.40;96984.50;4922432;28;103191;-69
2024/03/11 00:40:14;;;;;;;1.95;1.30;;;;;;;6.93;76.51;96988.31;4887716;28;105342;-70
2024/03/11 00:42:43;;;;;;;2.67;1.38;;;;;;;6.94;76.73;96991.75;4913949;28;105565;-69
2024/03/11 00:45:13;;;;;;;1.10;1.00;;;;;;;7.03;77.07;96997.72;4920642;28;102605;-69
2024/03/11 00:47:42;;;;;;;1.83;1.33;;;;;;;7.01;76.93;96995.28;4914311;28;102789;-69
2024/03/11 00:50:12;;;;;;;1.40;1.02;;;;;;;7.04;76.56;97005.44;4912906;28;103240;-70
2024/03/11 00:52:43;;;;;;;1.38;1.02;;;;;;;7.07;76.73;97005.06;4916928;28;103102;-70
2024/03/11 00:55:12;;;;;;;2.15;1.35;;;;;;;6.95;76.83;97007.38;4915663;28;102847;-69
2024/03/11 00:57:41;;;;;;;2.30;1.40;;;;;;;6.97;76.98;97004.56;4915574;28;102763;-69
2024/03/11 01:00:11;;;;;;;1.70;1.10;;;;;;;7.02;76.86;97014.53;4915890;28;105464;-69
2024/03/11 01:02:41;;;;;;;2.03;1.20;;;;;;;7.05;77.00;97012.34;4917593;28;103400;-70
2024/03/11 01:05:10;;;;;;;2.25;1.50;;;;;;;7.04;76.71;97013.34;4923446;28;102989;-70
2024/03/11 01:07:39;;;;;;;1.60;1.17;;;;;;;7.06;76.58;97019.25;4917484;28;102706;-70
2024/03/11 01:10:12;;;;;;;2.78;1.30;;;;;;;7.12;76.58;97012.41;4916037;28;106308;-70
2024/03/11 01:12:42;;;;;;;1.50;1.00;;;;;;;7.14;76.61;97023.56;4906244;28;103367;-70
2024/03/11 01:15:11;;;;;;;4.15;1.45;;;;;;;7.07;77.03;97026.13;4918542;28;102692;-70
2024/03/11 01:17:39;;;;;;;1.92;1.10;;;;;;;7.14;77.09;97037.53;4910655;28;105046;-69
2024/03/11 01:20:15;;;;;;;2.03;1.30;;;;;;;7.15;77.25;97035.72;4915183;28;103747;-70
2024/03/11 01:22:44;;;;;;;1.98;1.00;;;;;;;7.10;76.86;97044.19;4916845;28;105910;-69
2024/03/11 01:25:13;;;;;;;1.55;1.20;;;;;;;7.11;76.89;97037.09;4918306;28;102841;-69
2024/03/11 01:27:42;;;;;;;2.03;1.20;;;;;;;7.16;77.13;97049.72;4914702;28;103098;-70
2024/03/11 01:30:11;;;;;;;1.48;1.00;;;;;;;7.23;76.95;97054.03;4915806;28;104281;-69
2024/03/11 01:32:39;;;;;;;1.75;1.17;;;;;;;7.27;77.10;97047.41;4919642;28;103219;-69
2024/03/11 01:35:11;;;;;;;2.67;1.10;;;;;;;7.26;76.75;97051.03;4922083;28;102621;-69
2024/03/11 01:37:41;;;;;;;1.42;0.90;;;;;;;7.28;76.80;97058.72;4915383;28;109199;-70
2024/03/11 01:40:10;;;;;;;1.63;1.15;;;;;;;7.22;77.12;97062.09;4914660;28;103665;-70
2024/03/11 01:42:42;;;;;;;1.75;1.02;;;;;;;7.23;76.51;97059.31;4915258;28;103365;-69
2024/03/11 01:45:12;;;;;;;1.45;1.13;;;;;;;7.22;77.15;97048.94;4920306;28;102869;-69
2024/03/11 01:47:42;;;;;;;1.90;1.23;;;;;;;7.21;76.90;97057.88;4920036;28;102775;-69
2024/03/11 01:50:13;;;;;;;2.28;1.30;;;;;;;7.23;77.23;97055.84;4920907;28;103278;-70
2024/03/11 01:52:48;;;;;;;2.13;1.02;;;;;;;7.22;77.25;97055.03;4900635;28;105469;-70
2024/03/11 01:55:18;;;;;;;1.30;0.90;;;;;;;7.19;76.92;97057.22;4923542;28;102798;-69
2024/03/11 01:57:50;;;;;;;1.67;0.88;;;;;;;7.13;77.31;97056.97;4900507;28;102784;-69
2024/03/11 02:00:21;;;;;;;2.28;1.08;;;;;;;6.91;77.08;97063.22;4917683;28;103132;-69
2024/03/11 02:02:53;;;;;;;2.22;1.10;;;;;;;6.93;77.60;97062.03;4921727;28;107815;-69
2024/03/11 02:05:24;;;;;;;1.70;1.00;;;;;;;6.98;76.91;97064.09;4895041;28;102790;-69
2024/03/11 02:07:55;;;;;;;2.10;0.98;;;;;;;7.00;76.29;97056.03;4916212;28;103025;-69
2024/03/11 02:10:24;;;;;;;1.40;1.08;;;;;;;6.89;76.76;97049.41;4911667;28;103213;-69
2024/03/11 02:12:58;;;;;;;1.58;1.10;;;;;;;6.89;76.95;97050.25;4914143;28;107710;-70
2024/03/11 02:15:26;;;;;;;1.17;0.93;;;;;;;6.93;76.60;97056.75;4916001;28;102628;-69
2024/03/11 02:17:57;;;;;;;0.80;0.70;;;;;;;6.93;76.57;97058.56;4912558;28;103123;-69
2024/03/11 02:20:27;;;;;;;1.10;0.85;;;;;;;6.89;75.98;97052.03;4922980;28;103349;-69
2024/03/11 02:22:57;;;;;;;1.05;0.77;;;;;;;6.90;76.28;97051.03;4914102;28;103158;-69
2024/03/11 02:25:28;;;;;;;1.55;0.93;;;;;;;6.78;76.23;97054.13;4919107;28;103010;-69
2024/03/11 02:28:00;;;;;;;1.27;0.77;;;;;;;6.76;75.71;97055.31;4912982;28;102975;-70
2024/03/11 02:30:28;;;;;;;1.48;0.65;;;;;;;6.70;76.64;97049.00;4912296;28;103499;-69
2024/03/11 02:32:57;;;;;;;2.45;0.90;;;;;;;6.69;76.44;97049.19;4912895;28;103304;-70
2024/03/11 02:35:26;;;;;;;3.03;0.93;;;;;;;6.62;76.63;97054.38;4915809;28;102725;-69
2024/03/11 02:37:54;;;;;;;2.97;1.15;;;;;;;6.62;76.89;97049.09;4918168;28;102580;-69
2024/03/11 02:40:26;;;;;;;1.35;0.95;;;;;;;6.55;76.60;97061.34;4921290;28;103233;-69
2024/03/11 02:42:57;;;;;;;1.15;0.90;;;;;;;6.51;76.39;97067.97;4903264;28;107906;-70
2024/03/11 02:45:26;;;;;;;1.27;0.82;;;;;;;6.43;76.76;97067.09;4907987;28;102835;-70
2024/03/11 02:47:54;;;;;;;1.50;0.90;;;;;;;6.39;76.84;97064.97;4918104;28;104012;-70
2024/03/11 02:50:23;;;;;;;0.98;0.80;;;;;;;6.29;77.08;97067.91;4913117;28;103228;-70
2024/03/11 02:52:51;;;;;;;1.13;0.68;;;;;;;6.35;77.49;97063.72;4911767;28;107743;-69
2024/03/11 02:55:21;;;;;;;1.73;0.85;;;;;;;6.36;76.73;97076.69;4919236;28;102760;-69
2024/03/11 02:57:49;;;;;;;0.77;0.70;;;;;;;6.24;77.45;97086.03;4908971;28;102653;-69
2024/03/11 03:00:20;;;;;;;1.10;0.68;;;;;;;6.34;77.17;97083.94;4910927;28;105745;-70
2024/03/11 03:02:52;;;;;;;1.95;0.80;;;;;;;6.13;77.65;97082.84;4912551;28;107647;-69
2024/03/11 03:05:21;;;;;;;2.97;0.90;;;;;;;6.22;77.30;97086.22;4914107;28;102724;-69
2024/03/11 03:07:50;;;;;;;3.13;1.20;;;;;;;6.23;77.55;97081.75;4914923;28;102772;-69
2024/03/11 03:10:18;;;;;;;2.35;1.00;;;;;;;6.21;77.16;97095.09;4902299;28;104335;-70
2024/03/11 03:12:48;;;;;;;2.38;1.05;;;;;;;6.18;77.14;97089.38;4899244;28;106107;-69
2024/03/11 03:15:16;;;;;;;4.53;1.70;;;;;;;6.18;77.35;97105.13;4918171;28;102942;-69
2024/03/11 03:17:46;;;;;;;12.70;3.05;;;;;;;6.12;77.14;97101.41;4901616;28;103312;-69
2024/03/11 03:20:18;;;;;;;9.20;2.88;;;;;;;6.12;77.13;97102.22;4902077;28;103784;-69
2024/03/11 03:22:46;;;;;;;8.95;2.45;;;;;;;6.11;77.05;97102.41;4914448;28;103203;-69
2024/03/11 03:25:14;;;;;;;8.02;2.10;;;;;;;6.06;77.08;97102.94;4914419;28;103871;-69
2024/03/11 03:27:42;;;;;;;3.42;1.50;;;;;;;6.07;77.03;97106.41;4918694;28;103292;-69
2024/03/11 03:30:11;;;;;;;3.28;1.38;;;;;;;6.05;77.21;97106.59;4915051;28;104133;-70
2024/03/11 03:32:39;;;;;;;3.45;1.27;;;;;;;5.85;77.67;97105.41;4916899;28;103226;-69
2024/03/11 03:35:09;;;;;;;1.95;1.13;;;;;;;5.78;77.65;97111.34;4918331;28;103029;-69
2024/03/11 03:37:38;;;;;;;2.55;1.10;;;;;;;5.81;77.43;97115.44;4920966;28;102665;-69
2024/03/11 03:40:15;;;;;;;1.90;1.20;;;;;;;5.34;78.47;97114.63;4920859;28;103184;-70
2024/03/11 03:42:44;;;;;;;1.85;1.05;;;;;;;5.60;78.68;97119.53;4912971;28;103095;-69
2024/03/11 03:45:12;;;;;;;2.78;1.17;;;;;;;5.54;78.25;97116.78;4903082;28;103041;-70
2024/03/11 03:47:40;;;;;;;2.13;1.13;;;;;;;5.61;78.14;97125.63;4918166;28;102742;-69
2024/03/11 03:50:11;;;;;;;1.63;1.02;;;;;;;5.47;78.50;97114.84;4899676;28;103429;-69
2024/03/11 03:52:39;;;;;;;2.05;1.13;;;;;;;5.55;78.01;97121.06;4918465;28;103251;-69
2024/03/11 03:55:08;;;;;;;1.95;1.10;;;;;;;5.50;78.09;97118.13;4915613;28;103796;-69
2024/03/11 03:57:36;;;;;;;1.92;0.90;;;;;;;5.47;78.53;97114.84;4917831;28;102682;-69
2024/03/11 04:00:15;;;;;;;1.52;0.80;;;;;;;5.51;78.38;97125.84;4916544;28;103183;-69
2024/03/11 04:02:43;;;;;;;1.83;0.90;;;;;;;5.44;78.08;97125.72;4918056;28;105739;-68
2024/03/11 04:05:13;;;;;;;0.95;0.80;;;;;;;5.52;77.79;97124.84;4915776;28;102749;-69
2024/03/11 04:07:41;;;;;;;1.05;0.80;;;;;;;5.37;78.31;97132.69;4903639;28;102964;-69
2024/03/11 04:10:12;;;;;;;2.13;0.80;;;;;;;5.24;78.70;97130.59;4898941;28;105547;-70
2024/03/11 04:12:42;;;;;;;0.85;0.63;;;;;;;5.38;78.43;97136.91;4918626;28;103576;-70
2024/03/11 04:15:12;;;;;;;2.05;0.88;;;;;;;5.39;78.11;97127.25;4919354;28;102860;-69
2024/03/11 04:17:44;;;;;;;2.45;0.90;;;;;;;5.34;77.99;97135.63;4913895;28;102769;-69
2024/03/11 04:20:14;;;;;;;1.48;0.82;;;;;;;5.30;77.67;97123.84;4896324;28;106806;-70
2024/03/11 04:22:44;;;;;;;1.50;0.80;;;;;;;5.34;77.76;97137.44;4914982;28;103245;-70
2024/03/11 04:25:16;;;;;;;1.75;0.77;;;;;;;5.29;77.71;97135.31;4917091;28;102736;-70
2024/03/11 04:27:45;;;;;;;1.73;0.75;;;;;;;5.34;77.67;97134.81;4916023;28;105120;-70
2024/03/11 04:30:15;;;;;;;1.02;0.60;;;;;;;5.33;77.55;97131.34;4914845;28;107275;-69
2024/03/11 04:32:51;;;;;;;1.42;0.80;;;;;;;5.29;77.40;97132.69;4916870;28;104088;-69
2024/03/11 04:35:24;;;;;;;1.88;1.08;;;;;;;5.28;77.67;97142.41;4922613;28;102983;-69
2024/03/11 04:37:53;;;;;;;3.30;0.70;;;;;;;5.27;77.64;97135.50;4916551;28;102616;-70
2024/03/11 04:40:23;;;;;;;1.17;0.60;;;;;;;5.21;77.73;97140.63;4906544;28;105211;-69
2024/03/11 04:42:54;;;;;;;1.25;0.68;;;;;;;5.10;77.28;97126.91;4915372;28;107736;-69
2024/03/11 04:45:22;;;;;;;1.98;0.80;;;;;;;5.12;77.30;97130.19;4918811;28;102674;-69
2024/03/11 04:47:54;;;;;;;2.35;0.70;;;;;;;5.07;77.78;97140.38;4902987;28;107300;-69
2024/03/11 04:50:25;;;;;;;2.45;0.88;;;;;;;5.08;78.02;97138.56;4914686;28;103226;-69
2024/03/11 04:52:55;;;;;;;1.48;0.73;;;;;;;4.91;78.14;97141.28;4914117;28;107802;-69
2024/03/11 04:55:23;;;;;;;1.90;0.98;;;;;;;4.92;78.14;97147.31;4906825;28;103200;-69
2024/03/11 04:57:54;;;;;;;2.03;0.85;;;;;;;4.79;78.39;97147.84;4920288;28;102680;-69
2024/03/11 05:00:26;;;;;;;0.80;0.60;;;;;;;4.77;78.54;97145.41;4916721;28;105906;-69
2024/03/11 05:02:55;;;;;;;1.45;0.60;;;;;;;4.84;78.00;97153.41;4899062;28;110989;-69
2024/03/11 05:05:25;;;;;;;2.03;0.70;;;;;;;4.87;78.00;97149.63;4904397;28;102682;-69
2024/03/11 05:07:53;;;;;;;1.77;0.90;;;;;;;4.61;78.61;97161.19;4895183;28;102932;-69
2024/03/11 05:10:21;;;;;;;2.63;1.00;;;;;;;4.66;78.33;97158.88;4920407;28;104494;-69
2024/03/11 05:12:49;;;;;;;2.38;1.15;;;;;;;4.41;79.21;97160.75;4911884;28;109226;-69
2024/03/11 05:15:18;;;;;;;1.35;0.77;;;;;;;4.52;79.37;97164.81;4926689;28;105026;-72
2024/03/11 05:17:46;;;;;;;2.35;0.70;;;;;;;4.57;78.90;97171.22;4917565;28;103330;-73
2024/03/11 05:20:15;;;;;;;3.28;0.80;;;;;;;4.69;78.80;97176.09;4898319;28;106332;-73
2024/03/11 05:22:45;;;;;;;1.02;0.80;;;;;;;4.72;78.54;97179.19;4917100;28;103998;-74
2024/03/11 05:25:16;;;;;;;1.25;0.70;;;;;;;4.74;78.04;97182.47;4919391;28;104568;-68
2024/03/11 05:27:44;;;;;;;1.40;0.82;;;;;;;4.77;78.34;97171.63;4909794;28;102875;-68
2024/03/11 05:30:13;;;;;;;1.42;0.93;;;;;;;4.68;78.27;97183.16;4918848;28;103405;-68
2024/03/11 05:32:41;;;;;;;1.98;0.90;;;;;;;4.72;78.29;97189.69;4914906;28;103416;-68
2024/03/11 05:35:10;;;;;;;1.27;0.63;;;;;;;4.69;78.07;97195.28;4913909;28;103005;-68
2024/03/11 05:37:38;;;;;;;2.38;0.90;;;;;;;4.70;78.51;97190.84;4914077;28;102718;-69
2024/03/11 05:40:11;;;;;;;1.50;0.80;;;;;;;4.76;78.14;97195.41;4914276;28;103741;-69
2024/03/11 05:42:41;;;;;;;2.20;1.00;;;;;;;4.73;77.55;97196.56;4911001;28;103505;-70
2024/03/11 05:45:12;;;;;;;1.33;0.80;;;;;;;4.72;77.92;97202.00;4914904;28;103020;-69
2024/03/11 05:47:41;;;;;;;2.08;1.15;;;;;;;4.56;77.65;97201.03;4917940;28;102861;-70
2024/03/11 05:50:12;;;;;;;4.35;1.40;;;;;;;4.59;78.10;97200.69;4915529;28;103483;-69
2024/03/11 05:52:44;;;;;;;6.95;2.10;;;;;;;4.57;78.03;97196.59;4903691;28;103143;-70
2024/03/11 05:55:14;;;;;;;4.95;2.00;;;;;;;4.59;77.57;97205.13;4892563;28;102790;-70
2024/03/11 05:57:43;;;;;;;4.68;1.73;;;;;;;4.64;77.63;97208.06;4912478;28;102973;-70
2024/03/11 06:00:15;;;;;;;3.47;1.77;;;;;;;4.65;78.00;97209.69;4897065;28;105826;-71
2024/03/11 06:02:46;;;;;;;4.03;1.80;;;;;;;4.69;77.64;97218.88;4912967;28;103389;-71
2024/03/11 06:05:17;;;;;;;2.95;1.70;;;;;;;4.71;77.44;97222.13;4916382;28;102815;-71
2024/03/11 06:07:46;;;;;;;2.75;1.27;;;;;;;4.75;77.30;97223.44;4894954;28;102974;-71
2024/03/11 06:10:23;;;;;;;1.75;0.90;;;;;;;4.76;77.61;97232.94;4916673;28;103184;-71
2024/03/11 06:12:51;;;;;;;3.67;1.00;;;;;;;4.83;77.73;97235.72;4915539;28;108131;-71
2024/03/11 06:15:21;;;;;;;4.90;1.40;;;;;;;4.87;77.09;97244.88;4914559;28;102735;-71
2024/03/11 06:17:50;;;;;;;3.72;1.02;;;;;;;4.94;77.19;97243.25;4897999;28;103261;-70
2024/03/11 06:20:18;;;;;;;3.40;1.02;;;;;;;4.95;77.00;97251.91;4917621;28;103291;-74
2024/03/11 06:22:46;;;;;;;1.88;1.33;;;;;;;5.01;76.84;97255.69;4919038;28;102973;-71
2024/03/11 06:25:15;;;;;;;2.17;1.40;;;;;;;5.09;76.58;97256.47;4904692;28;103306;-70
2024/03/11 06:27:44;;;;;;;2.90;1.42;;;;;;;5.18;76.47;97261.72;4901288;28;102816;-70
2024/03/11 06:30:16;;;;;;;1.92;1.10;;;;;;;5.21;76.36;97271.88;4896829;28;105145;-71
2024/03/11 06:32:48;;;;;;;2.30;0.95;;;;;;;5.26;75.96;97269.56;4915096;28;104874;-71
2024/03/11 06:35:17;;;;;;;2.92;1.35;;;;;;;5.13;76.60;97272.72;4926971;28;102765;-71
2024/03/11 06:37:45;;;;;;;3.20;1.10;;;;;;;5.28;76.54;97278.09;4917869;28;102752;-71
2024/03/11 06:40:21;;;;;;;2.42;1.30;;;;;;;5.34;76.05;97281.84;4918051;28;103180;-71
2024/03/11 06:42:51;;;;;;;2.35;1.00;;;;;;;5.39;76.26;97287.41;4914940;28;103670;-71
2024/03/11 06:45:21;;;;;;;2.83;1.13;;;;;;;5.45;76.15;97287.53;4922119;28;102645;-71
2024/03/11 06:47:49;;;;;;;2.90;1.48;;;;;;;5.54;75.94;97292.75;4915262;28;102820;-71
2024/03/11 06:50:18;;;;;;;3.13;1.25;;;;;;;5.45;76.32;97292.78;4892912;28;105780;-71
2024/03/11 06:52:46;;;;;;;3.38;1.40;;;;;;;5.62;76.20;97297.97;4922466;28;103256;-71
2024/03/11 06:55:16;;;;;;;3.35;1.35;;;;;;;5.72;75.80;97293.31;4895771;28;102859;-70
2024/03/11 06:57:44;;;;;;;1.85;0.93;;;;;;;5.92;75.53;97295.53;4917387;28;103289;-71
2024/03/11 07:00:18;;;;;;;1.33;0.90;;;;;;;6.11;75.04;97294.28;4900336;28;106745;-73
2024/03/11 07:02:47;;;;;;;2.42;0.93;;;;;;;6.01;74.88;97294.50;4916743;28;103702;-72
2024/03/11 07:05:15;;;;;;;6.35;1.10;;;;;;;6.30;74.20;97300.91;4919504;28;102829;-70
2024/03/11 07:07:43;;;;;;;2.38;0.90;;;;;;;6.46;73.95;97297.34;4898101;28;102984;-71
2024/03/11 07:10:11;;;;;;;1.67;0.93;;;;;;;6.59;73.68;97308.09;4913879;28;106101;-70
2024/03/11 07:12:42;;;;;;;2.03;1.10;;;;;;;6.66;73.39;97307.38;4903663;28;103588;-70
2024/03/11 07:15:11;;;;;;;2.10;0.90;;;;;;;6.55;72.86;97312.06;4918683;28;103503;-68
2024/03/11 07:17:42;;;;;;;1.77;0.88;;;;;;;6.76;72.97;97307.94;4912373;28;103466;-71
2024/03/11 07:20:12;;;;;;;2.17;0.88;;;;;;;6.85;72.32;97314.78;4918283;28;103495;-69
2024/03/11 07:22:42;;;;;;;2.88;1.02;;;;;;;6.83;70.42;97314.13;4917862;28;103150;-69
2024/03/11 07:25:11;;;;;;;3.63;0.90;;;;;;;6.91;71.10;97315.88;4894679;28;102793;-69
2024/03/11 07:27:39;;;;;;;3.00;0.80;;;;;;;7.00;71.44;97321.91;4892890;28;102804;-69
2024/03/11 07:30:09;;;;;;;2.03;0.60;;;;;;;7.07;70.59;97328.06;4908491;28;106096;-69
2024/03/11 07:32:38;;;;;;;1.15;0.80;;;;;;;7.30;70.41;97333.28;4912844;28;103213;-69
2024/03/11 07:35:08;;;;;;;3.05;0.90;;;;;;;7.65;68.98;97338.81;4905067;28;103179;-69
2024/03/11 07:37:37;;;;;;;4.97;1.27;;;;;;;8.00;68.93;97327.66;4909012;28;102789;-69
2024/03/11 07:40:10;;;;;;;7.25;1.20;;;;;;;8.17;68.89;97330.91;4919224;28;103950;-69
2024/03/11 07:42:40;;;;;;;2.13;1.17;;;;;;;8.27;67.63;97337.50;4903206;28;110426;-70
2024/03/11 07:45:11;;;;;;;2.10;0.85;;;;;;;8.60;67.80;97341.50;4907293;28;106157;-70
2024/03/11 07:47:43;;;;;;;1.17;0.63;;;;;;;8.90;66.09;97346.66;4915685;28;102917;-70
2024/03/11 07:50:13;;;;;;;0.90;0.70;;;;;;;9.21;66.05;97348.09;4922292;28;106328;-70
2024/03/11 07:52:42;;;;;;;1.23;0.60;;;;;;;9.52;64.06;97350.31;4915294;28;109144;-70
2024/03/11 07:55:10;;;;;;;1.80;0.70;;;;;;;9.63;62.91;97346.34;4915490;28;102757;-70
2024/03/11 07:57:39;;;;;;;2.75;0.75;;;;;;;10.02;62.04;97358.13;4908383;28;103254;-70
2024/03/11 08:00:09;;;;;;;1.30;0.52;;;;;;;9.98;62.16;97354.22;4912161;28;103565;-70
2024/03/11 08:02:37;;;;;;;1.85;0.70;;;;;;;10.55;60.90;97359.31;4897016;28;106755;-70
2024/03/11 08:05:11;;;;;;;1.63;0.73;;;;;;;10.76;61.02;97367.06;4896031;28;102932;-70
2024/03/11 08:07:41;;;;;;;2.92;0.75;;;;;;;10.96;58.68;97366.28;4912427;28;103161;-70
2024/03/11 08:10:12;;;;;;;4.63;0.60;;;;;;;11.02;58.85;97381.38;4918197;28;104386;-71
2024/03/11 08:12:42;;;;;;;2.17;0.63;;;;;;;11.13;58.87;97379.94;4916996;28;103206;-71
2024/03/11 08:15:12;;;;;;;2.97;0.82;;;;;;;10.88;58.73;97383.19;4899082;28;102692;-71
2024/03/11 08:17:44;;;;;;;1.65;0.68;;;;;;;11.11;57.84;97393.41;4919085;28;102680;-70
2024/03/11 08:20:17;;;;;;;6.30;0.90;;;;;;;10.95;57.91;97393.78;4899244;28;106009;-71
2024/03/11 08:22:48;;;;;;;1.75;0.77;;;;;;;11.15;57.63;97388.50;4885974;28;105547;-71
2024/03/11 08:25:20;;;;;;;3.55;0.80;;;;;;;11.37;57.12;97383.81;4913239;28;102821;-71
2024/03/11 08:27:51;;;;;;;8.60;0.77;;;;;;;11.48;55.59;97389.53;4899387;28;102964;-71
2024/03/11 08:30:22;;;;;;;0.90;0.70;;;;;;;11.71;56.74;97379.28;4914099;28;103493;-71
2024/03/11 08:32:52;;;;;;;4.30;0.98;;;;;;;12.19;57.14;97385.28;4916079;28;105733;-71
2024/03/11 08:35:23;;;;;;;1.35;0.90;;;;;;;12.34;54.19;97382.34;4911937;28;102728;-70
2024/03/11 08:37:53;;;;;;;1.70;0.80;;;;;;;12.63;54.08;97377.47;4902440;28;102766;-70
2024/03/11 08:40:22;;;;;;;2.03;0.75;;;;;;;12.99;53.88;97382.16;4913098;28;103398;-70
2024/03/11 08:42:50;;;;;;;3.65;0.90;;;;;;;12.73;53.34;97393.78;4896526;28;104060;-70
2024/03/11 08:45:22;;;;;;;0.75;0.60;;;;;;;12.69;53.28;97389.91;4919907;28;103186;-70
2024/03/11 08:47:51;;;;;;;2.00;0.80;;;;;;;12.97;52.92;97391.34;4915422;28;103122;-70
2024/03/11 08:50:21;;;;;;;3.05;0.68;;;;;;;13.09;53.75;97390.44;4912076;28;103294;-71
2024/03/11 08:52:54;;;;;;;1.25;0.63;;;;;;;13.65;53.45;97393.28;4914940;28;103187;-70
2024/03/11 08:55:22;;;;;;;1.58;0.55;;;;;;;13.61;51.01;97392.06;4901820;28;102918;-71
2024/03/11 08:57:54;;;;;;;2.25;0.82;;;;;;;13.70;52.10;97396.09;4898328;28;102837;-69
2024/03/11 09:00:27;;;;;;;1.65;0.65;;;;;;;13.60;50.67;97404.56;4900834;28;103577;-70
2024/03/11 09:02:55;;;;;;;1.02;0.50;;;;;;;14.19;51.33;97411.34;4908341;28;103321;-71
2024/03/11 09:05:24;;;;;;;4.03;0.70;;;;;;;13.86;49.55;97417.81;4904674;28;103068;-71
2024/03/11 09:07:54;;;;;;;1.17;0.60;;;;;;;13.91;50.03;97417.97;4916432;28;102802;-71
2024/03/11 09:10:22;;;;;;;2.00;0.80;;;;;;;14.15;49.83;97418.97;4916166;28;107570;-70
2024/03/11 09:12:51;;;;;;;3.30;0.68;;;;;;;14.40;50.88;97410.88;4898487;28;103529;-71
2024/03/11 09:15:23;;;;;;;3.05;0.60;;;;;;;14.65;48.44;97417.97;4915071;28;103043;-71
2024/03/11 09:17:52;;;;;;;2.17;0.57;;;;;;;14.45;47.75;97418.19;4919252;28;102740;-72
2024/03/11 09:20:24;;;;;;;0.98;0.47;;;;;;;15.02;48.55;97417.03;4918882;28;104905;-72
2024/03/11 09:22:56;;;;;;;1.08;0.68;;;;;;;14.99;47.32;97428.97;4917106;28;103809;-72
2024/03/11 09:25:25;;;;;;;0.93;0.60;;;;;;;14.37;49.39;97421.97;4916954;28;102804;-72
2024/03/11 09:27:55;;;;;;;2.35;0.65;;;;;;;14.95;48.63;97427.81;4907049;28;102764;-72
2024/03/11 09:30:28;;;;;;;3.03;0.77;;;;;;;14.48;47.81;97427.59;4911811;28;103371;-72
2024/03/11 09:32:56;;;;;;;3.03;0.70;;;;;;;14.91;46.90;97431.97;4912996;28;103609;-72
2024/03/11 09:35:25;;;;;;;1.85;0.60;;;;;;;14.99;46.11;97438.84;4900048;28;102960;-72
2024/03/11 09:37:55;;;;;;;2.08;0.60;;;;;;;15.35;47.67;97431.69;4902178;28;103660;-72
2024/03/11 09:40:26;;;;;;;0.80;0.80;;;;;;;14.90;47.38;97438.34;4921511;28;104681;-72
2024/03/11 09:42:58;;;;;;;2.75;0.60;;;;;;;14.89;47.46;97437.50;4918362;28;103953;-72
2024/03/11 09:45:28;;;;;;;3.53;0.63;;;;;;;14.65;47.92;97444.59;4918842;28;102702;-72
2024/03/11 09:48:00;;;;;;;1.80;0.60;;;;;;;15.37;48.70;97437.63;4917013;28;102778;-72
2024/03/11 09:50:32;;;;;;;1.88;0.50;;;;;;;14.91;48.17;97443.44;4918670;28;104364;-72
2024/03/11 09:53:06;;;;;;;1.27;0.50;;;;;;;14.09;49.39;97449.94;4905118;28;106129;-72
2024/03/11 09:55:37;;;;;;;3.70;0.57;;;;;;;13.75;48.73;97446.81;4898052;28;103343;-72
2024/03/11 09:58:10;;;;;;;2.05;0.80;;;;;;;14.34;48.99;97454.38;4918325;28;103018;-72
2024/03/11 10:00:49;;;;;;;1.35;0.50;;;;;;;14.16;47.92;97451.72;4901741;28;103801;-74
2024/03/11 10:03:22;;;;;;;0.70;0.50;;;;;;;14.31;48.79;97454.81;4899127;28;103423;-71
2024/03/11 10:05:56;;;;;;;2.70;0.65;;;;;;;15.09;46.49;97455.06;4901317;28;105117;-71
2024/03/11 10:08:29;;;;;;;4.10;1.08;;;;;;;14.23;47.28;97463.91;4912929;28;103494;-72
2024/03/11 10:11:18;;;;;;;1.10;0.50;;;;;;;14.19;46.93;97464.59;4921503;28;105463;-72
2024/03/11 10:13:46;;;;;;;1.35;0.80;;;;;;;13.31;48.47;97472.53;4901359;28;105414;-71
2024/03/11 10:16:17;;;;;;;3.25;0.90;;;;;;;13.13;50.38;97465.28;4910357;28;102990;-72
2024/03/11 10:19:00;;;;;;;1.98;0.90;;;;;;;13.04;49.33;97471.88;4898360;28;103169;-71
2024/03/11 10:21:31;;;;;;;2.78;0.60;;;;;;;13.76;49.60;97468.91;4920448;28;103803;-71
2024/03/11 10:24:02;;;;;;;1.33;0.50;;;;;;;14.03;47.54;97466.81;4918143;28;105563;-71
2024/03/11 10:26:33;;;;;;;2.60;0.47;;;;;;;14.21;47.28;97467.84;4898547;28;103179;-71
2024/03/11 10:29:02;;;;;;;2.38;0.60;;;;;;;14.38;47.35;97462.72;4922839;28;102854;-71
2024/03/11 10:31:33;;;;;;;3.22;0.68;;;;;;;14.37;48.71;97464.59;4918208;28;103271;-71
2024/03/11 10:34:12;;;;;;;2.00;0.50;;;;;;;14.25;47.95;97471.69;4897426;28;106032;-71
2024/03/11 10:36:46;;;;;;;1.33;0.45;;;;;;;14.10;47.06;97459.56;4901082;28;103487;-71
2024/03/11 10:39:30;;;;;;;1.88;0.70;;;;;;;14.85;46.10;97464.84;4903970;28;102917;-71
2024/03/11 10:42:01;;;;;;;1.50;0.50;;;;;;;15.06;44.22;97460.88;4915528;28;107863;-71
2024/03/11 10:44:30;;;;;;;4.20;0.80;;;;;;;14.69;45.08;97455.63;4913790;28;103385;-72
2024/03/11 10:47:14;;;;;;;1.10;0.50;;;;;;;14.69;45.21;97453.78;4903645;28;103284;-72
2024/03/11 10:49:47;;;;;;;2.83;0.52;;;;;;;14.81;45.31;97463.69;4916614;28;102815;-71
2024/03/11 10:52:20;;;;;;;4.75;0.47;;;;;;;14.61;44.29;97454.06;4916212;28;103421;-71
2024/03/11 10:54:54;;;;;;;0.95;0.50;;;;;;;15.07;44.97;97462.50;4913928;28;107711;-71
2024/03/11 10:57:43;;;;;;;0.93;0.40;;;;;;;15.67;43.89;97453.56;4904278;28;103130;-71
2024/03/11 11:00:23;;;;;;;2.22;0.50;;;;;;;15.90;42.76;97459.97;4914794;28;103252;-70
2024/03/11 11:02:57;;;;;;;1.25;0.52;;;;;;;16.51;43.93;97460.44;4909613;28;108099;-72
2024/03/11 11:05:32;;;;;;;;;;;;;;;16.82;41.81;97452.19;4916980;28;103267;-74
2024/03/11 11:08:03;;;;;;;0.68;0.30;;;;;;;16.82;40.37;97454.88;4918243;28;102709;-73
2024/03/11 11:10:38;;;;;;;1.15;0.50;;;;;;;16.00;41.07;97454.84;4900085;28;103498;-72
2024/03/11 11:13:08;;;;;;;0.73;0.40;;;;;;;16.25;41.55;97446.56;4917613;28;103157;-73
2024/03/11 11:15:36;;;;;;;0.85;0.47;;;;;;;15.90;40.87;97443.94;4909583;28;103191;-72
2024/03/11 11:18:09;;;;;;;1.13;0.50;;;;;;;16.65;41.49;97447.63;4926310;28;102794;-73
2024/03/11 11:20:38;;;;;;;1.92;0.60;;;;;;;16.70;40.54;97442.38;4918711;28;102722;-72
2024/03/11 11:23:10;;;;;;;1.00;0.50;;;;;;;16.18;40.11;97439.72;4901729;28;105229;-72
2024/03/11 11:25:41;;;;;;;0.57;0.50;;;;;;;15.86;39.27;97446.25;4905009;28;103776;-72
2024/03/11 11:28:13;;;;;;;0.40;0.40;;;;;;;16.97;40.48;97431.13;4895739;28;103524;-72
2024/03/11 11:30:43;;;;;;;2.25;0.47;;;;;;;17.28;38.87;97430.81;4915915;28;103232;-72
2024/03/11 11:33:12;;;;;;;0.50;0.40;;;;;;;17.68;38.58;97440.56;4922560;28;104411;-72
2024/03/11 11:35:43;;;;;;;2.20;0.47;;;;;;;16.95;39.00;97443.09;4916049;28;102945;-72
2024/03/11 11:38:34;;;;;;;1.05;0.30;;;;;;;16.53;37.50;97449.50;4916623;28;103282;-73
2024/03/11 11:41:39;;;;;;;1.83;0.55;;;;;;;16.27;40.49;97443.69;4897606;28;104643;-72
2024/03/11 11:44:07;;;;;;;10.15;1.15;;;;;;;16.14;41.67;97442.06;4916048;28;108264;-72
2024/03/11 11:46:41;;;;;;;1.52;0.52;;;;;;;16.15;40.55;97437.53;4895097;28;106207;-72